createdAt,value
2018-06-23T05:18:12.843Z,45
2018-06-23T05:18:34.392Z,40
2018-06-23T05:18:54.868Z,40
2018-06-23T05:19:15.371Z,45
2018-06-23T05:19:35.827Z,45
2018-06-23T05:19:56.111Z,45
2018-06-23T05:20:16.549Z,45
2018-06-23T05:20:37.765Z,40
2018-06-23T05:20:58.017Z,45
2018-06-23T05:21:18.280Z,45
2018-06-23T05:21:38.758Z,40
2018-06-23T05:21:59.044Z,40
2018-06-23T05:22:19.140Z,40
2018-06-23T05:22:39.533Z,40
2018-06-23T05:22:59.968Z,40
2018-06-23T05:53:34.711Z,35
2018-06-23T05:53:55.085Z,40
2018-06-23T05:54:37.583Z,40
2018-06-23T05:54:57.875Z,35
2018-06-23T05:56:29.127Z,40
2018-06-23T05:57:33.643Z,45
2018-06-23T05:57:54.100Z,45
2018-06-23T05:58:14.454Z,45
2018-06-23T05:58:34.841Z,45
2018-06-23T05:58:55.035Z,45
2018-06-23T05:59:49.220Z,45
2018-06-23T06:00:10.113Z,40
2018-06-23T06:00:30.482Z,40
2018-06-23T06:00:50.875Z,40
2018-06-23T06:01:11.198Z,40
2018-06-23T06:01:31.550Z,35
2018-06-23T06:01:52.030Z,35
2018-06-23T06:02:12.315Z,35
2018-06-23T06:02:32.581Z,35
2018-06-23T06:02:52.817Z,35
2018-06-23T06:12:24.766Z,35
2018-06-23T06:12:45.371Z,40
2018-06-23T06:13:05.719Z,40
2018-06-23T06:13:26.029Z,40
2018-06-23T06:13:46.508Z,45
2018-06-23T06:14:07.943Z,45
2018-06-23T06:14:28.354Z,45
2018-06-23T06:14:48.781Z,45
2018-06-23T06:15:10.076Z,40
2018-06-23T06:15:31.199Z,45
2018-06-23T06:15:51.599Z,45
2018-06-23T06:16:13.003Z,45
2018-06-23T06:16:34.103Z,40
2018-06-23T06:16:54.656Z,40
2018-06-23T06:17:14.978Z,40
2018-06-23T06:17:35.584Z,35
2018-06-23T06:17:56.040Z,35
2018-06-23T06:18:16.591Z,30
2018-06-23T06:18:36.977Z,30
2018-06-23T06:24:09.116Z,35
2018-06-23T06:24:29.352Z,35
2018-06-23T06:24:49.733Z,40
2018-06-23T06:25:10.348Z,40
2018-06-23T06:25:30.774Z,35
2018-06-23T06:25:51.164Z,35
2018-06-23T06:26:12.186Z,35
2018-06-23T06:26:32.844Z,40
2018-06-23T06:26:53.145Z,40
2018-06-23T06:27:13.493Z,40
2018-06-23T06:27:33.799Z,40
2018-06-23T06:27:54.120Z,45
2018-06-23T06:28:14.516Z,50
2018-06-23T06:28:34.856Z,55
2018-06-23T06:28:55.356Z,60
2018-06-23T06:29:15.763Z,70
2018-06-23T06:29:36.243Z,65
2018-06-23T06:29:56.634Z,60
2018-06-23T06:30:17.089Z,60
2018-06-23T06:30:37.564Z,55
2018-06-23T06:30:58.039Z,50
2018-06-23T06:31:18.594Z,55
2018-06-23T06:31:39.207Z,55
2018-06-23T06:31:59.558Z,45
2018-06-23T06:32:19.828Z,35
2018-06-23T06:32:40.412Z,30
2018-06-23T06:33:01.490Z,30
2018-06-23T06:33:22.717Z,30
2018-06-23T06:33:43.172Z,30
2018-06-23T06:34:03.673Z,35
2018-06-23T06:34:24.148Z,40
2018-06-23T06:34:45.262Z,30
2018-06-23T06:35:05.825Z,30
2018-06-23T06:35:27.221Z,30
2018-06-23T06:35:47.526Z,30
2018-06-23T06:36:07.989Z,35
2018-06-23T06:36:47.139Z,35
2018-06-23T06:37:07.734Z,30
2018-06-23T06:37:28.445Z,35
2018-06-23T06:37:49.087Z,35
2018-06-23T06:43:45.335Z,45
2018-06-23T06:44:05.762Z,45
2018-06-23T06:44:26.169Z,50
2018-06-23T06:44:46.662Z,50
2018-06-23T06:45:06.986Z,50
2018-06-23T06:45:27.359Z,45
2018-06-23T06:45:47.668Z,40
2018-06-23T06:46:08.210Z,40
2018-06-23T06:46:28.619Z,35
2018-06-23T06:46:48.977Z,40
2018-06-23T06:47:09.425Z,40
2018-06-23T06:47:29.877Z,35
2018-06-23T06:48:14.580Z,40
2018-06-23T06:48:35.129Z,35
2018-06-23T06:48:55.422Z,35
2018-06-23T06:49:16.884Z,35
2018-06-23T06:49:37.445Z,35
2018-06-23T06:49:57.802Z,30
2018-06-23T06:50:17.992Z,35
2018-06-23T06:50:38.522Z,35
2018-06-23T06:50:58.851Z,35
2018-06-23T06:51:19.144Z,35
2018-06-23T06:51:39.617Z,30
2018-06-23T06:51:59.970Z,30
2018-06-23T06:52:20.205Z,35
2018-06-23T06:52:40.468Z,30
2018-06-23T06:53:00.840Z,30
2018-06-23T06:53:21.307Z,30
2018-06-23T06:53:41.579Z,35
2018-06-23T06:54:01.853Z,35
2018-06-23T06:54:22.834Z,35
2018-06-23T06:54:43.239Z,35
2018-06-23T06:55:03.545Z,35
2018-06-23T06:55:23.828Z,35
2018-06-23T06:55:44.062Z,40
2018-06-23T06:56:04.300Z,40
2018-06-23T06:56:24.693Z,40
2018-06-23T06:56:45.000Z,40
2018-06-23T06:57:05.362Z,45
2018-06-23T06:57:25.666Z,55
2018-06-23T06:57:45.936Z,50
2018-06-23T06:58:06.245Z,45
2018-06-23T06:58:26.521Z,50
2018-06-23T06:58:47.050Z,55
2018-06-23T06:59:07.424Z,65
2018-06-23T06:59:27.626Z,55
2018-06-23T06:59:47.821Z,55
2018-06-23T07:00:08.099Z,55
2018-06-23T07:00:28.314Z,40
2018-06-23T07:00:48.607Z,45
2018-06-23T07:01:08.920Z,45
2018-06-23T07:01:29.160Z,40
2018-06-23T07:01:49.406Z,40
2018-06-23T07:02:09.677Z,40
2018-06-23T07:02:29.890Z,45
2018-06-23T07:02:50.116Z,55
2018-06-23T07:03:10.476Z,45
2018-06-23T07:03:30.984Z,45
2018-06-23T07:03:51.297Z,45
2018-06-23T07:04:11.568Z,50
2018-06-23T07:04:31.988Z,50
2018-06-23T07:04:52.174Z,55
2018-06-23T07:05:12.375Z,45
2018-06-23T07:05:33.098Z,50
2018-06-23T07:05:53.487Z,40
2018-06-23T07:06:13.822Z,35
2018-06-23T07:06:34.059Z,45
2018-06-23T07:06:54.335Z,55
2018-06-23T07:07:14.691Z,55
2018-06-23T07:07:35.046Z,55
2018-06-23T07:07:55.367Z,55
2018-06-23T07:08:15.840Z,50
2018-06-23T07:08:36.176Z,55
2018-06-23T07:08:56.835Z,55
2018-06-23T07:09:18.119Z,55
2018-06-23T07:09:38.626Z,50
2018-06-23T07:09:59.124Z,45
2018-06-23T07:10:19.909Z,50
2018-06-23T07:10:40.424Z,50
2018-06-23T07:11:01.119Z,45
2018-06-23T07:11:21.630Z,50
2018-06-23T07:11:42.011Z,55
2018-06-23T07:12:02.393Z,50
2018-06-23T07:12:23.051Z,55
2018-06-23T07:12:43.600Z,45
2018-06-23T07:13:04.899Z,55
2018-06-23T07:13:25.311Z,55
2018-06-23T07:13:45.716Z,55
2018-06-23T07:14:06.206Z,50
2018-06-23T07:14:26.692Z,50
2018-06-23T07:14:47.441Z,50
2018-06-23T07:15:08.465Z,50
2018-06-23T07:15:29.079Z,45
2018-06-23T07:15:49.510Z,45
2018-06-23T07:16:09.885Z,55
2018-06-23T07:16:30.212Z,50
2018-06-23T07:16:51.416Z,55
2018-06-23T07:17:12.502Z,55
2018-06-23T07:17:32.898Z,55
2018-06-23T07:17:53.313Z,55
2018-06-23T07:18:14.362Z,45
2018-06-23T07:18:34.865Z,45
2018-06-23T07:18:55.505Z,45
2018-06-23T07:19:15.840Z,45
2018-06-23T07:19:36.297Z,45
2018-06-23T07:19:56.840Z,45
2018-06-23T07:20:17.333Z,55
2018-06-23T07:20:37.765Z,55
2018-06-23T07:20:58.340Z,60
2018-06-23T07:21:18.627Z,60
2018-06-23T07:21:38.972Z,60
2018-06-23T07:22:00.493Z,65
2018-06-23T07:22:21.001Z,65
2018-06-23T07:22:41.434Z,65
2018-06-23T07:23:01.876Z,60
2018-06-23T07:23:22.476Z,60
2018-06-23T07:23:44.144Z,65
2018-06-23T07:24:04.561Z,55
2018-06-23T07:24:25.701Z,55
2018-06-23T07:24:48.008Z,55
2018-06-23T07:25:08.357Z,55
2018-06-23T07:25:28.915Z,55
2018-06-23T07:25:49.496Z,55
2018-06-23T07:26:09.913Z,50
2018-06-23T07:26:30.423Z,45
2018-06-23T07:26:50.845Z,45
2018-06-23T07:27:11.736Z,45
2018-06-23T07:27:32.497Z,50
2018-06-23T07:27:53.035Z,50
2018-06-23T07:28:13.313Z,45
2018-06-23T07:28:34.441Z,45
2018-06-23T07:28:54.905Z,50
2018-06-23T07:29:15.294Z,55
2018-06-23T07:29:35.626Z,55
2018-06-23T07:29:56.193Z,50
2018-06-23T07:30:16.513Z,45
2018-06-23T07:30:36.893Z,50
2018-06-23T07:30:57.451Z,45
2018-06-23T07:31:17.835Z,45
2018-06-23T07:31:38.307Z,45
2018-06-23T07:31:59.322Z,45
2018-06-23T07:32:19.689Z,40
2018-06-23T07:32:40.254Z,40
2018-06-23T07:33:00.586Z,45
2018-06-23T07:33:21.119Z,40
2018-06-23T07:33:41.500Z,45
2018-06-23T07:34:01.989Z,45
2018-06-23T07:34:22.396Z,40
2018-06-23T07:34:42.900Z,35
2018-06-23T07:35:03.329Z,35
2018-06-23T07:35:24.082Z,40
2018-06-23T07:35:44.436Z,45
2018-06-23T07:36:04.950Z,50
2018-06-23T07:36:25.279Z,60
2018-06-23T07:36:45.605Z,60
2018-06-23T07:37:05.875Z,60
2018-06-23T07:37:26.144Z,65
2018-06-23T07:37:46.503Z,70
2018-06-23T07:38:06.906Z,70
2018-06-23T07:38:27.127Z,70
2018-06-23T07:38:47.603Z,65
2018-06-23T07:39:08.086Z,65
2018-06-23T07:39:28.599Z,60
2018-06-23T07:39:50.392Z,60
2018-06-23T07:40:10.845Z,65
2018-06-23T07:40:31.397Z,65
2018-06-23T07:40:51.716Z,65
2018-06-23T07:41:13.063Z,65
2018-06-23T07:41:33.351Z,65
2018-06-23T07:41:53.704Z,70
2018-06-23T07:42:14.222Z,70
2018-06-23T07:42:34.475Z,70
2018-06-23T07:42:54.757Z,65
2018-06-23T07:43:15.144Z,60
2018-06-23T07:43:36.327Z,55
2018-06-23T07:43:56.639Z,60
2018-06-23T07:44:17.063Z,55
2018-06-23T07:44:37.552Z,55
2018-06-23T07:44:58.002Z,50
2018-06-23T07:45:18.417Z,50
2018-06-23T07:45:39.076Z,45
2018-06-23T07:45:59.588Z,45
2018-06-23T07:46:20.045Z,45
2018-06-23T07:46:40.414Z,45
2018-06-23T07:47:00.819Z,50
2018-06-23T07:47:21.484Z,50
2018-06-23T07:47:41.850Z,55
2018-06-23T07:48:02.334Z,50
2018-06-23T07:48:22.778Z,50
2018-06-23T07:48:43.210Z,50
2018-06-23T07:49:03.655Z,50
2018-06-23T07:49:25.889Z,45
2018-06-23T07:49:46.343Z,45
2018-06-23T07:50:06.720Z,45
2018-06-23T07:50:27.123Z,45
2018-06-23T07:50:47.596Z,50
2018-06-23T07:51:08.019Z,50
2018-06-23T07:51:28.463Z,55
2018-06-23T07:51:48.802Z,50
2018-06-23T07:52:09.173Z,55
2018-06-23T07:52:29.545Z,50
2018-06-23T07:52:50.105Z,50
2018-06-23T07:53:10.462Z,50
2018-06-23T07:53:30.770Z,50
2018-06-23T07:53:51.191Z,50
2018-06-23T07:54:11.554Z,50
2018-06-23T07:54:32.037Z,50
2018-06-23T07:54:52.340Z,45
2018-06-23T07:55:12.669Z,45
2018-06-23T07:55:32.927Z,45
2018-06-23T07:55:53.283Z,40
2018-06-23T07:56:13.766Z,40
2018-06-23T07:56:35.033Z,35
2018-06-23T07:56:56.382Z,35
2018-06-23T07:57:16.879Z,35
2018-06-23T07:57:37.257Z,35
2018-06-23T07:57:57.530Z,35
2018-06-23T07:58:17.956Z,35
2018-06-23T07:58:38.968Z,40
2018-06-23T07:58:59.820Z,40
2018-06-23T07:59:20.298Z,40
2018-06-23T07:59:40.608Z,40
2018-06-23T08:00:02.099Z,40
2018-06-23T08:00:22.477Z,40
2018-06-23T08:00:43.013Z,40
2018-06-23T08:01:03.364Z,40
2018-06-23T08:01:23.849Z,40
2018-06-23T08:01:44.618Z,35
2018-06-23T08:02:04.917Z,35
2018-06-23T08:02:25.294Z,30
2018-06-23T08:02:46.517Z,30
2018-06-23T08:03:08.944Z,30
2018-06-23T08:03:29.437Z,30
2018-06-23T08:03:49.809Z,30
2018-06-23T08:04:10.207Z,30
2018-06-23T08:04:30.600Z,30
2018-06-23T08:04:50.916Z,30
2018-06-23T08:05:11.199Z,25
2018-06-23T08:05:31.588Z,25
2018-06-23T08:05:52.000Z,25
2018-06-23T08:06:12.439Z,25
2018-06-23T08:06:32.778Z,25
2018-06-23T08:06:53.124Z,25
2018-06-23T08:07:13.435Z,25
2018-06-23T08:07:33.878Z,25
2018-06-23T08:07:54.326Z,25
2018-06-23T08:08:14.744Z,25
2018-06-23T08:08:36.042Z,25
2018-06-23T08:08:56.478Z,30
2018-06-23T08:09:16.971Z,30
2018-06-23T08:09:38.225Z,30
2018-06-23T08:09:59.037Z,30
2018-06-23T08:10:19.383Z,30
2018-06-23T08:10:40.598Z,30
2018-06-23T08:11:01.017Z,30
2018-06-23T08:11:21.417Z,30
2018-06-23T08:11:41.741Z,30
2018-06-23T08:12:02.154Z,35
2018-06-23T08:12:22.544Z,35
2018-06-23T08:12:43.078Z,35
2018-06-23T08:13:03.834Z,35
2018-06-23T08:13:25.019Z,35
2018-06-23T08:13:45.608Z,35
2018-06-23T08:14:06.995Z,35
2018-06-23T08:14:27.701Z,40
2018-06-23T08:14:48.699Z,40
2018-06-23T08:15:09.268Z,40
2018-06-23T08:15:29.605Z,35
2018-06-23T08:15:51.322Z,35
2018-06-23T08:16:12.548Z,35
2018-06-23T08:16:32.753Z,35
2018-06-23T08:16:53.078Z,35
2018-06-23T08:17:13.159Z,35
2018-06-23T08:17:33.366Z,35
2018-06-23T08:17:53.765Z,35
2018-06-23T08:18:14.096Z,35
2018-06-23T08:18:34.451Z,35
2018-06-23T08:18:54.856Z,35
2018-06-23T08:19:15.150Z,35
2018-06-23T08:19:35.545Z,35
2018-06-23T08:19:55.805Z,35
2018-06-23T08:20:16.331Z,35
2018-06-23T08:20:36.792Z,35
2018-06-23T08:20:57.304Z,35
2018-06-23T08:21:18.060Z,35
2018-06-23T08:21:38.353Z,35
2018-06-23T08:21:58.612Z,35
2018-06-23T08:22:19.542Z,35
2018-06-23T08:22:39.864Z,30
2018-06-23T08:23:00.165Z,30
2018-06-23T08:23:20.364Z,30
2018-06-23T08:23:40.614Z,30
2018-06-23T08:24:01.533Z,30
2018-06-23T08:24:21.984Z,30
2018-06-23T08:24:42.317Z,30
2018-06-23T08:25:02.635Z,35
2018-06-23T08:25:23.430Z,35
2018-06-23T08:25:43.917Z,40
2018-06-23T08:26:04.827Z,45
2018-06-23T08:26:25.262Z,45
2018-06-23T08:26:45.659Z,45
2018-06-23T08:27:06.048Z,45
2018-06-23T08:27:26.322Z,40
2018-06-23T08:27:46.542Z,40
2018-06-23T08:28:06.747Z,45
2018-06-23T08:28:27.094Z,40
2018-06-23T08:28:47.373Z,40
2018-06-23T08:29:07.615Z,40
2018-06-23T08:29:27.822Z,40
2018-06-23T08:29:48.164Z,40
2018-06-23T08:30:09.035Z,40
2018-06-23T08:30:29.380Z,40
2018-06-23T08:30:49.761Z,40
2018-06-23T08:31:10.021Z,40
2018-06-23T08:31:30.263Z,35
2018-06-23T08:31:50.524Z,35
2018-06-23T08:32:10.888Z,35
2018-06-23T08:32:31.191Z,35
2018-06-23T08:32:52.602Z,30
2018-06-23T08:33:13.576Z,30
2018-06-23T08:33:33.889Z,30
2018-06-23T08:33:54.240Z,35
2018-06-23T08:34:14.478Z,35
2018-06-23T08:34:34.844Z,35
2018-06-23T08:34:55.183Z,35
2018-06-23T08:35:16.422Z,40
2018-06-23T08:35:38.154Z,40
2018-06-23T08:36:01.824Z,40
2018-06-23T08:36:22.538Z,40
2018-06-23T08:36:44.162Z,40
2018-06-23T08:37:04.380Z,40
2018-06-23T08:37:24.557Z,40
2018-06-23T08:37:44.991Z,40
2018-06-23T08:38:40.371Z,35
2018-06-23T08:39:00.665Z,35
2018-06-23T08:44:03.020Z,45
2018-06-23T08:44:23.294Z,45
2018-06-23T08:45:39.668Z,45
2018-06-23T08:46:24.966Z,45
2018-06-23T08:46:45.338Z,45
2018-06-23T08:47:05.634Z,45
2018-06-23T08:47:26.740Z,45
2018-06-23T08:47:47.145Z,45
2018-06-23T08:48:08.200Z,45
2018-06-23T08:48:28.670Z,45
2018-06-23T08:48:49.092Z,45
2018-06-23T08:49:09.459Z,50
2018-06-23T08:49:29.866Z,55
2018-06-23T08:49:50.777Z,55
2018-06-23T08:50:11.165Z,50
2018-06-23T08:50:31.744Z,45
2018-06-23T08:50:52.112Z,50
2018-06-23T08:51:14.259Z,50
2018-06-23T08:51:34.600Z,55
2018-06-23T08:51:54.768Z,60
2018-06-23T08:52:15.054Z,65
2018-06-23T08:52:35.483Z,65
2018-06-23T08:52:55.790Z,60
2018-06-23T08:53:16.178Z,60
2018-06-23T08:53:36.410Z,65
2018-06-23T08:53:56.620Z,60
2018-06-23T08:54:16.944Z,55
2018-06-23T08:54:37.402Z,50
2018-06-23T08:54:58.212Z,45
2018-06-23T08:55:18.595Z,40
2018-06-23T08:55:39.101Z,40
2018-06-23T08:55:59.598Z,40
2018-06-23T08:56:19.977Z,40
2018-06-23T08:56:40.341Z,40
2018-06-23T08:57:00.677Z,40
2018-06-23T08:57:20.899Z,35
2018-06-23T08:57:41.234Z,35
2018-06-23T08:58:01.489Z,35
2018-06-23T08:58:21.636Z,35
2018-06-23T08:58:41.945Z,30
2018-06-23T08:59:02.217Z,30
2018-06-23T08:59:22.399Z,30
2018-06-23T08:59:42.587Z,30
2018-06-23T09:00:02.773Z,30
2018-06-23T09:07:24.695Z,35
2018-06-23T09:07:44.868Z,35
2018-06-23T09:08:05.050Z,35
2018-06-23T09:08:25.236Z,35
2018-06-23T09:09:53.117Z,35
2018-06-23T09:10:44.765Z,30
2018-06-23T09:14:11.426Z,35
2018-06-23T09:15:09.304Z,40
2018-06-23T09:16:01.328Z,45
2018-06-23T09:16:21.546Z,45
2018-06-23T09:16:41.895Z,45
2018-06-23T09:17:02.158Z,45
2018-06-23T09:17:22.537Z,45
2018-06-23T09:17:42.875Z,45
2018-06-23T09:18:03.090Z,45
2018-06-23T09:18:23.347Z,40
2018-06-23T09:18:43.701Z,40
2018-06-23T09:19:03.675Z,40
2018-06-23T09:19:24.074Z,40
2018-06-23T09:19:44.311Z,45
2018-06-23T09:20:04.581Z,45
2018-06-23T09:20:24.881Z,45
2018-06-23T09:20:45.148Z,45
2018-06-23T09:21:05.949Z,45
2018-06-23T09:21:26.135Z,50
2018-06-23T09:21:46.463Z,60
2018-06-23T09:22:06.792Z,60
2018-06-23T09:22:27.079Z,65
2018-06-23T09:22:47.425Z,65
2018-06-23T09:23:07.608Z,60
2018-06-23T09:23:27.823Z,55
2018-06-23T09:23:48.057Z,50
2018-06-23T09:24:08.371Z,55
2018-06-23T09:25:04.066Z,55
2018-06-23T09:25:24.263Z,55
2018-06-23T09:25:45.452Z,55
2018-06-23T09:26:05.794Z,55
2018-06-23T09:26:26.150Z,50
2018-06-23T09:26:46.656Z,45
2018-06-23T09:27:06.892Z,45
2018-06-23T09:27:27.166Z,45
2018-06-23T09:27:47.545Z,45
2018-06-23T09:28:07.814Z,45
2018-06-23T09:28:28.090Z,45
2018-06-23T09:28:48.431Z,45
2018-06-23T09:29:09.461Z,50
2018-06-23T09:29:29.670Z,50
2018-06-23T09:29:50.045Z,50
2018-06-23T09:30:10.333Z,45
2018-06-23T09:30:30.569Z,50
2018-06-23T09:30:50.737Z,55
2018-06-23T09:31:11.034Z,60
2018-06-23T09:31:31.252Z,60
2018-06-23T09:31:51.416Z,70
2018-06-23T09:32:11.653Z,75
2018-06-23T09:32:31.790Z,75
2018-06-23T09:32:52.339Z,75
2018-06-23T09:33:12.697Z,70
2018-06-23T09:33:32.978Z,75
2018-06-23T09:33:53.133Z,75
2018-06-23T09:34:13.665Z,75
2018-06-23T09:34:34.903Z,80
2018-06-23T09:34:55.238Z,80
2018-06-23T09:35:16.422Z,80
2018-06-23T09:35:36.687Z,80
2018-06-23T09:35:57.105Z,85
2018-06-23T09:36:17.827Z,85
2018-06-23T09:36:38.298Z,85
2018-06-23T09:36:58.806Z,90
2018-06-23T09:37:19.433Z,90
2018-06-23T09:37:39.878Z,90
2018-06-23T09:38:00.295Z,90
2018-06-23T09:38:20.721Z,90
2018-06-23T09:38:41.916Z,85
2018-06-23T09:39:03.705Z,90
2018-06-23T09:39:25.141Z,85
2018-06-23T09:39:45.299Z,85
2018-06-23T09:40:05.684Z,85
2018-06-23T09:40:26.158Z,85
2018-06-23T09:40:46.769Z,90
2018-06-23T09:41:07.006Z,95
2018-06-23T09:41:28.405Z,95
2018-06-23T09:41:48.805Z,100
2018-06-23T09:42:09.319Z,95
2018-06-23T09:42:30.068Z,100
2018-06-23T09:42:50.419Z,100
2018-06-23T09:43:10.772Z,100
2018-06-23T09:43:31.165Z,90
2018-06-23T09:43:51.417Z,85
2018-06-23T09:44:11.913Z,85
2018-06-23T09:44:32.533Z,80
2018-06-23T09:44:52.942Z,85
2018-06-23T09:45:13.480Z,85
2018-06-23T09:45:34.004Z,80
2018-06-23T09:45:55.068Z,70
2018-06-23T09:46:15.577Z,70
2018-06-23T09:46:35.922Z,70
2018-06-23T09:46:57.010Z,70
2018-06-23T09:47:17.882Z,75
2018-06-23T09:47:38.176Z,75
2018-06-23T09:47:58.421Z,70
2018-06-23T09:48:18.856Z,70
2018-06-23T09:48:39.217Z,75
2018-06-23T09:49:00.622Z,70
2018-06-23T09:49:21.100Z,70
2018-06-23T09:49:41.446Z,70
2018-06-23T09:50:02.222Z,75
2018-06-23T09:50:22.485Z,75
2018-06-23T09:50:42.799Z,70
2018-06-23T09:51:03.252Z,80
2018-06-23T09:51:24.455Z,85
2018-06-23T09:51:45.089Z,80
2018-06-23T09:52:05.998Z,75
2018-06-23T09:52:26.615Z,85
2018-06-23T09:52:47.997Z,90
2018-06-23T09:53:08.407Z,85
2018-06-23T09:53:28.757Z,80
2018-06-23T09:53:49.316Z,75
2018-06-23T09:54:09.828Z,75
2018-06-23T09:54:30.190Z,85
2018-06-23T09:54:51.658Z,90
2018-06-23T09:55:12.080Z,85
2018-06-23T09:55:32.632Z,95
2018-06-23T09:55:53.071Z,95
2018-06-23T09:56:13.558Z,90
2018-06-23T09:56:33.995Z,85
2018-06-23T09:56:54.425Z,95
2018-06-23T09:57:14.874Z,100
2018-06-23T09:57:35.254Z,90
2018-06-23T09:57:55.803Z,100
2018-06-23T09:58:16.192Z,110
2018-06-23T09:58:36.586Z,110
2018-06-23T09:58:56.972Z,110
2018-06-23T09:59:17.961Z,105
2018-06-23T09:59:38.385Z,105
2018-06-23T09:59:58.756Z,100
2018-06-23T10:00:19.196Z,95
2018-06-23T10:00:39.711Z,95
2018-06-23T10:01:00.145Z,95
2018-06-23T10:01:20.720Z,105
2018-06-23T10:01:41.146Z,105
2018-06-23T10:02:01.644Z,110
2018-06-23T10:02:22.067Z,105
2018-06-23T10:02:42.644Z,100
2018-06-23T10:03:03.453Z,105
2018-06-23T10:03:23.972Z,110
2018-06-23T10:03:45.823Z,105
2018-06-23T10:04:06.536Z,95
2018-06-23T10:04:27.001Z,90
2018-06-23T10:04:47.654Z,90
2018-06-23T10:05:09.040Z,95
2018-06-23T10:05:29.636Z,100
2018-06-23T10:05:51.001Z,90
2018-06-23T10:06:11.381Z,90
2018-06-23T10:06:32.471Z,80
2018-06-23T10:06:53.073Z,75
2018-06-23T10:07:13.604Z,75
2018-06-23T10:07:34.014Z,70
2018-06-23T10:07:54.505Z,70
2018-06-23T10:08:14.921Z,65
2018-06-23T10:08:36.076Z,55
2018-06-23T10:08:56.365Z,55
2018-06-23T10:09:16.836Z,55
2018-06-23T10:09:37.468Z,55
2018-06-23T10:09:58.530Z,55
2018-06-23T10:10:19.347Z,55
2018-06-23T10:10:39.945Z,55
2018-06-23T10:11:00.559Z,50
2018-06-23T10:11:22.047Z,50
2018-06-23T10:11:42.692Z,50
2018-06-23T10:12:03.169Z,50
2018-06-23T10:12:23.576Z,55
2018-06-23T10:12:43.857Z,55
2018-06-23T10:13:04.183Z,60
2018-06-23T10:13:24.520Z,55
2018-06-23T10:13:44.777Z,45
2018-06-23T10:14:05.186Z,40
2018-06-23T10:14:25.415Z,40
2018-06-23T10:14:45.695Z,35
2018-06-23T10:15:05.935Z,35
2018-06-23T10:15:26.297Z,35
2018-06-23T10:15:46.479Z,35
2018-06-23T10:16:06.801Z,35
2018-06-23T10:16:27.405Z,35
2018-06-23T10:16:47.617Z,40
2018-06-23T10:17:07.801Z,35
2018-06-23T10:17:28.017Z,35
2018-06-23T10:17:48.166Z,35
2018-06-23T10:18:08.443Z,40
2018-06-23T10:18:28.779Z,40
2018-06-23T10:18:49.055Z,40
2018-06-23T10:19:09.416Z,40
2018-06-23T10:19:29.729Z,40
2018-06-23T10:19:49.919Z,45
2018-06-23T10:20:10.212Z,45
2018-06-23T10:20:30.875Z,45
2018-06-23T10:20:51.435Z,45
2018-06-23T10:21:11.703Z,45
2018-06-23T10:21:32.119Z,50
2018-06-23T10:21:52.265Z,50
2018-06-23T10:22:14.533Z,55
2018-06-23T10:22:34.730Z,60
2018-06-23T10:22:54.998Z,60
2018-06-23T10:23:15.185Z,60
2018-06-23T10:23:36.364Z,60
2018-06-23T10:23:56.603Z,65
2018-06-23T10:24:16.961Z,60
2018-06-23T10:24:37.886Z,60
2018-06-23T10:24:58.214Z,60
2018-06-23T10:25:18.650Z,60
2018-06-23T10:25:39.095Z,55
2018-06-23T10:25:59.397Z,55
2018-06-23T10:26:19.586Z,50
2018-06-23T10:26:39.893Z,50
2018-06-23T10:27:00.243Z,50
2018-06-23T10:27:20.532Z,50
2018-06-23T10:27:40.753Z,50
2018-06-23T10:28:00.979Z,45
2018-06-23T10:28:21.188Z,45
2018-06-23T10:28:41.379Z,45
2018-06-23T10:29:01.548Z,50
2018-06-23T10:29:21.787Z,45
2018-06-23T10:29:41.996Z,45
2018-06-23T10:30:02.261Z,45
2018-06-23T10:30:22.447Z,45
2018-06-23T10:30:42.714Z,45
2018-06-23T10:31:02.874Z,45
2018-06-23T10:31:23.085Z,50
2018-06-23T10:31:43.273Z,45
2018-06-23T10:32:03.440Z,45
2018-06-23T10:32:23.663Z,45
2018-06-23T10:32:43.797Z,45
2018-06-23T10:33:04.470Z,40
2018-06-23T10:33:24.989Z,40
2018-06-23T10:33:45.362Z,40
2018-06-23T10:34:05.966Z,40
2018-06-23T10:34:26.835Z,40
2018-06-23T10:34:47.338Z,40
2018-06-23T10:35:07.559Z,40
2018-06-23T10:35:27.729Z,40
2018-06-23T10:35:47.916Z,40
2018-06-23T10:36:08.127Z,40
2018-06-23T10:36:28.263Z,40
2018-06-23T10:36:49.527Z,40
2018-06-23T10:37:09.689Z,40
2018-06-23T10:37:29.844Z,40
2018-06-23T10:37:49.980Z,40
2018-06-23T10:38:10.149Z,45
2018-06-23T10:38:30.327Z,50
2018-06-23T10:38:50.620Z,50
2018-06-23T10:39:10.791Z,45
2018-06-23T10:39:31.201Z,50
2018-06-23T10:39:51.555Z,50
2018-06-23T10:40:12.061Z,50
2018-06-23T10:40:32.476Z,60
2018-06-23T10:40:52.767Z,70
2018-06-23T10:41:13.006Z,65
2018-06-23T10:41:33.191Z,70
2018-06-23T10:41:53.443Z,70
2018-06-23T10:42:13.737Z,65
2018-06-23T10:42:33.980Z,60
2018-06-23T10:42:54.364Z,60
2018-06-23T10:43:14.572Z,60
2018-06-23T10:43:35.508Z,60
2018-06-23T10:43:55.779Z,60
2018-06-23T10:44:16.096Z,60
2018-06-23T10:44:36.524Z,65
2018-06-23T10:44:56.693Z,65
2018-06-23T10:45:16.926Z,75
2018-06-23T10:45:37.236Z,80
2018-06-23T10:45:57.583Z,80
2018-06-23T10:46:18.000Z,80
2018-06-23T10:46:39.392Z,80
2018-06-23T10:46:59.933Z,75
2018-06-23T10:47:21.080Z,65
2018-06-23T10:47:42.885Z,70
2018-06-23T10:48:03.351Z,70
2018-06-23T10:48:24.107Z,70
2018-06-23T10:48:44.619Z,75
2018-06-23T10:49:05.073Z,80
2018-06-23T10:49:25.492Z,85
2018-06-23T10:49:46.090Z,85
2018-06-23T10:50:06.797Z,80
2018-06-23T10:50:27.255Z,85
2018-06-23T10:50:48.438Z,85
2018-06-23T10:51:09.977Z,85
2018-06-23T10:51:30.623Z,95
2018-06-23T10:51:51.275Z,100
2018-06-23T10:52:12.454Z,100
2018-06-23T10:52:32.615Z,100
2018-06-23T10:52:52.833Z,95
2018-06-23T10:53:13.997Z,105
2018-06-23T10:53:34.169Z,105
2018-06-23T10:53:54.637Z,105
2018-06-23T10:54:14.953Z,105
2018-06-23T10:54:35.229Z,100
2018-06-23T10:54:55.567Z,95
2018-06-23T10:55:15.980Z,90
2018-06-23T10:55:36.412Z,80
2018-06-23T10:55:57.503Z,85
2018-06-23T10:56:18.340Z,80
2018-06-23T10:56:38.796Z,80
2018-06-23T10:56:59.264Z,75
2018-06-23T10:57:19.596Z,80
2018-06-23T10:57:40.019Z,80
2018-06-23T10:58:00.489Z,80
2018-06-23T10:58:20.748Z,75
2018-06-23T10:58:40.892Z,75
2018-06-23T10:59:01.151Z,75
2018-06-23T10:59:22.459Z,70
2018-06-23T10:59:43.614Z,65
2018-06-23T11:00:04.150Z,65
2018-06-23T11:00:24.631Z,65
2018-06-23T11:00:47.495Z,60
2018-06-23T11:01:08.226Z,55
2018-06-23T11:01:28.902Z,60
2018-06-23T11:01:49.986Z,60
2018-06-23T11:02:10.663Z,60
2018-06-23T11:02:31.167Z,60
2018-06-23T11:02:51.592Z,55
2018-06-23T11:03:11.947Z,55
2018-06-23T11:03:32.434Z,50
2018-06-23T11:03:52.708Z,50
2018-06-23T11:04:13.025Z,45
2018-06-23T11:04:33.657Z,45
2018-06-23T11:04:55.558Z,40
2018-06-23T11:05:16.034Z,40
2018-06-23T11:05:36.507Z,50
2018-06-23T11:05:58.911Z,50
2018-06-23T11:06:19.399Z,50
2018-06-23T11:06:39.770Z,55
2018-06-23T11:07:00.112Z,60
2018-06-23T11:07:20.418Z,55
2018-06-23T11:07:40.767Z,50
2018-06-23T11:08:01.124Z,50
2018-06-23T11:08:22.283Z,45
2018-06-23T11:08:42.506Z,40
2018-06-23T11:09:02.943Z,45
2018-06-23T11:09:23.958Z,45
2018-06-23T11:09:44.288Z,45
2018-06-23T11:10:04.666Z,45
2018-06-23T11:10:25.855Z,40
2018-06-23T11:10:46.375Z,40
2018-06-23T11:11:06.719Z,40
2018-06-23T11:11:27.006Z,45
2018-06-23T11:11:47.358Z,45
2018-06-23T11:12:07.761Z,45
2018-06-23T11:12:28.157Z,45
2018-06-23T11:12:48.389Z,45
2018-06-23T11:13:08.741Z,45
2018-06-23T11:13:29.053Z,45
2018-06-23T11:13:49.298Z,45
2018-06-23T11:14:09.649Z,45
2018-06-23T11:14:29.991Z,40
2018-06-23T11:14:50.320Z,40
2018-06-23T11:15:10.669Z,40
2018-06-23T11:15:30.905Z,35
2018-06-23T11:15:51.106Z,35
2018-06-23T11:16:11.360Z,35
2018-06-23T11:16:31.580Z,40
2018-06-23T11:16:51.957Z,35
2018-06-23T11:17:12.232Z,30
2018-06-23T11:17:32.551Z,30
2018-06-23T11:17:52.911Z,30
2018-06-23T11:18:13.117Z,30
2018-06-23T11:18:33.282Z,35
2018-06-23T11:18:53.474Z,35
2018-06-23T11:19:13.683Z,30
2018-06-23T11:19:33.904Z,30
2018-06-23T11:19:54.306Z,30
2018-06-23T11:20:14.513Z,30
2018-06-23T11:20:34.813Z,30
2018-06-23T11:20:55.055Z,30
2018-06-23T11:21:15.257Z,30
2018-06-23T11:21:35.513Z,30
2018-06-23T11:21:55.668Z,35
2018-06-23T11:22:15.884Z,35
2018-06-23T11:22:36.057Z,40
2018-06-23T11:22:56.205Z,40
2018-06-23T11:23:16.543Z,40
2018-06-23T11:23:36.760Z,40
2018-06-23T11:23:56.988Z,45